createdAt,value
2023-05-22T00:00:13.358Z,68.13
2023-05-22T00:02:43.308Z,67.50
2023-05-22T00:05:14.704Z,67.33
2023-05-22T00:07:44.256Z,66.98
2023-05-22T00:10:10.919Z,67.23
2023-05-22T00:12:37.779Z,67.35
2023-05-22T00:15:04.682Z,67.32
2023-05-22T00:17:31.145Z,67.36
2023-05-22T00:20:04.470Z,67.67
2023-05-22T00:22:31.564Z,67.74
2023-05-22T00:24:58.174Z,66.96
2023-05-22T00:27:24.778Z,67.28
2023-05-22T00:29:51.304Z,67.51
2023-05-22T00:32:17.728Z,67.20
2023-05-22T00:34:44.172Z,66.64
2023-05-22T00:37:10.836Z,66.90
2023-05-22T00:39:37.231Z,66.41
2023-05-22T00:42:03.908Z,66.68
2023-05-22T00:44:30.320Z,67.55
2023-05-22T00:46:57.066Z,67.76
2023-05-22T00:49:23.520Z,68.74
2023-05-22T00:51:50.221Z,68.48
2023-05-22T00:54:17.131Z,67.97
2023-05-22T00:56:43.780Z,67.63
2023-05-22T00:59:10.263Z,67.91
2023-05-22T01:01:41.912Z,68.44
2023-05-22T01:04:12.660Z,68.53
2023-05-22T01:06:41.262Z,68.49
2023-05-22T01:09:08.080Z,69.25
2023-05-22T01:12:07.524Z,69.38
2023-05-22T01:14:41.985Z,69.41
2023-05-22T01:17:24.410Z,69.30
2023-05-22T01:19:53.948Z,69.04
2023-05-22T01:22:58.375Z,68.71
2023-05-22T01:26:05.689Z,69.46
2023-05-22T01:28:50.771Z,68.93
2023-05-22T01:31:19.168Z,68.93
2023-05-22T01:33:49.015Z,68.71
2023-05-22T01:36:20.212Z,69.17
2023-05-22T01:38:47.256Z,69.20
2023-05-22T01:41:14.153Z,69.47
2023-05-22T01:43:41.705Z,69.67
2023-05-22T01:46:08.205Z,69.11
2023-05-22T01:48:35.858Z,69.34
2023-05-22T01:51:12.017Z,68.91
2023-05-22T01:53:48.237Z,69.48
2023-05-22T01:56:20.854Z,70.01
2023-05-22T01:59:01.514Z,70.34
2023-05-22T02:01:32.074Z,71.51
2023-05-22T02:03:59.285Z,71.82
2023-05-22T02:06:28.656Z,71.17
2023-05-22T02:08:55.754Z,71.00
2023-05-22T02:11:26.824Z,71.81
2023-05-22T02:13:53.263Z,71.80
2023-05-22T02:16:22.083Z,72.46
2023-05-22T02:18:48.638Z,73.22
2023-05-22T02:21:15.031Z,72.78
2023-05-22T02:23:41.492Z,72.76
2023-05-22T02:26:08.066Z,73.34
2023-05-22T02:28:34.538Z,74.39
2023-05-22T02:31:02.672Z,74.32
2023-05-22T02:33:29.878Z,74.98
2023-05-22T02:35:56.239Z,74.93
2023-05-22T02:38:22.783Z,75.81
2023-05-22T02:40:49.709Z,75.64
2023-05-22T02:43:16.076Z,76.69
2023-05-22T02:45:42.441Z,76.80
2023-05-22T02:48:08.897Z,77.22
2023-05-22T02:50:35.374Z,77.64
2023-05-22T02:53:01.750Z,77.47
2023-05-22T02:55:28.131Z,77.76
2023-05-22T02:57:54.534Z,78.64
2023-05-22T03:00:22.507Z,78.53
2023-05-22T03:02:49.163Z,78.81
2023-05-22T03:05:17.723Z,79.11
2023-05-22T03:07:48.140Z,79.02
2023-05-22T03:10:15.181Z,79.36
2023-05-22T03:12:41.582Z,79.48
2023-05-22T03:15:08.592Z,80.39
2023-05-22T03:17:35.036Z,79.59
2023-05-22T03:20:01.471Z,81.13
2023-05-22T03:22:27.872Z,79.70
2023-05-22T03:24:54.323Z,80.92
2023-05-22T03:27:21.215Z,79.98
2023-05-22T03:29:47.654Z,80.22
2023-05-22T03:32:14.184Z,80.51
2023-05-22T03:34:41.055Z,80.38
2023-05-22T03:37:08.948Z,81.02
2023-05-22T03:39:36.034Z,81.02
2023-05-22T03:42:02.490Z,81.03
2023-05-22T03:44:28.922Z,81.21
2023-05-22T03:46:55.369Z,81.21
2023-05-22T03:49:21.779Z,81.11
2023-05-22T03:51:48.151Z,81.46
2023-05-22T03:54:14.540Z,80.99
2023-05-22T03:56:40.951Z,80.78
2023-05-22T03:59:07.417Z,81.49
2023-05-22T04:01:33.799Z,81.46
2023-05-22T04:04:00.825Z,81.29
2023-05-22T04:06:27.227Z,80.51
2023-05-22T04:08:53.659Z,80.99
2023-05-22T04:11:20.929Z,81.23
2023-05-22T04:13:49.241Z,81.50
2023-05-22T04:16:17.427Z,80.92
2023-05-22T04:18:44.340Z,81.30
2023-05-22T04:21:10.778Z,82.15
2023-05-22T04:23:38.501Z,81.89
2023-05-22T04:26:04.929Z,82.32
2023-05-22T04:28:31.430Z,82.18
2023-05-22T04:30:57.883Z,82.22
2023-05-22T04:33:28.865Z,82.00
2023-05-22T04:35:55.241Z,81.94
2023-05-22T04:38:21.845Z,82.60
2023-05-22T04:40:48.377Z,83.04
2023-05-22T04:43:14.764Z,83.33
2023-05-22T04:45:42.271Z,83.58
2023-05-22T04:48:08.794Z,83.95
2023-05-22T04:50:35.972Z,84.88
2023-05-22T04:53:04.213Z,85.94
2023-05-22T04:55:33.886Z,85.47
2023-05-22T04:58:00.397Z,86.22
2023-05-22T05:00:28.649Z,85.88
2023-05-22T05:02:55.288Z,85.58
2023-05-22T05:05:21.792Z,85.31
2023-05-22T05:07:50.285Z,85.33
2023-05-22T05:10:17.038Z,85.92
2023-05-22T05:12:43.663Z,85.92
2023-05-22T05:15:10.455Z,85.72
2023-05-22T05:17:37.103Z,85.47
2023-05-22T05:20:06.950Z,85.35
2023-05-22T05:22:33.724Z,84.85
2023-05-22T05:25:00.166Z,85.51
2023-05-22T05:27:26.547Z,84.74
2023-05-22T05:29:52.916Z,84.54
2023-05-22T05:32:43.583Z,84.00
2023-05-22T05:35:26.475Z,84.09
2023-05-22T05:37:53.025Z,83.54
2023-05-22T05:40:19.576Z,83.73
2023-05-22T05:42:45.955Z,83.60
2023-05-22T05:45:13.249Z,83.39
2023-05-22T05:47:40.609Z,83.88
2023-05-22T05:50:07.467Z,84.10
2023-05-22T05:52:34.120Z,83.89
2023-05-22T05:55:03.626Z,84.03
2023-05-22T05:57:30.973Z,83.76
2023-05-22T05:59:57.406Z,86.20
2023-05-22T06:02:24.404Z,86.69
2023-05-22T06:04:50.937Z,85.50
2023-05-22T06:07:17.507Z,85.20
2023-05-22T06:09:44.116Z,85.97
2023-05-22T06:12:13.449Z,85.46
2023-05-22T06:14:42.777Z,85.51
2023-05-22T06:17:09.273Z,84.95
2023-05-22T06:19:35.863Z,85.10
2023-05-22T06:22:02.466Z,85.81
2023-05-22T06:24:28.944Z,85.11
2023-05-22T06:26:55.455Z,85.21
2023-05-22T06:29:22.845Z,85.43
2023-05-22T06:31:52.328Z,84.48
2023-05-22T06:34:22.498Z,83.86
2023-05-22T06:36:52.202Z,83.42
2023-05-22T06:39:19.083Z,82.36
2023-05-22T06:41:45.552Z,82.13
2023-05-22T06:44:12.861Z,82.76
2023-05-22T06:46:39.459Z,82.37
2023-05-22T06:49:06.219Z,81.94
2023-05-22T06:51:34.370Z,81.99
2023-05-22T06:54:00.913Z,81.68
2023-05-22T06:56:27.391Z,82.51
2023-05-22T06:58:53.830Z,81.85
2023-05-22T07:01:20.629Z,81.64
2023-05-22T07:03:47.031Z,82.29
2023-05-22T07:06:13.476Z,81.48
2023-05-22T07:08:39.935Z,82.78
2023-05-22T07:11:07.672Z,82.80
2023-05-22T07:13:34.101Z,82.40
2023-05-22T07:16:00.810Z,83.38
2023-05-22T07:18:27.257Z,83.02
2023-05-22T07:20:53.727Z,84.02
2023-05-22T07:23:20.167Z,83.04
2023-05-22T07:25:46.598Z,82.88
2023-05-22T07:28:13.102Z,84.57
2023-05-22T07:30:39.893Z,83.68
2023-05-22T07:33:06.762Z,82.42
2023-05-22T07:35:33.564Z,82.21
2023-05-22T07:38:00.057Z,83.21
2023-05-22T07:40:27.342Z,82.69
2023-05-22T07:42:53.877Z,83.38
2023-05-22T07:45:22.009Z,83.41
2023-05-22T07:47:48.572Z,82.91
2023-05-22T07:50:14.995Z,83.41
2023-05-22T07:52:41.457Z,82.27
2023-05-22T07:55:08.496Z,84.55
2023-05-22T07:57:36.151Z,84.38
2023-05-22T08:00:09.416Z,86.37
2023-05-22T08:02:36.586Z,85.91
2023-05-22T08:05:04.459Z,85.91
2023-05-22T08:07:32.876Z,83.96
2023-05-22T08:10:02.419Z,83.77
2023-05-22T08:12:28.957Z,82.97
2023-05-22T08:14:55.492Z,82.71
2023-05-22T08:17:21.972Z,83.13
2023-05-22T08:19:48.800Z,82.88
2023-05-22T08:22:15.286Z,83.14
2023-05-22T08:24:41.729Z,82.47
2023-05-22T08:27:08.102Z,82.32
2023-05-22T08:29:38.503Z,81.89
2023-05-22T08:32:05.800Z,82.30
2023-05-22T08:34:33.036Z,82.03
2023-05-22T08:36:59.991Z,81.95
2023-05-22T08:39:26.472Z,81.60
2023-05-22T08:41:53.064Z,81.82
2023-05-22T08:44:20.460Z,81.24
2023-05-22T08:47:00.219Z,80.71
2023-05-22T08:49:26.992Z,81.52
2023-05-22T08:51:57.132Z,80.35
2023-05-22T08:54:26.290Z,80.09
2023-05-22T08:56:57.161Z,80.00
2023-05-22T08:59:24.828Z,79.77
2023-05-22T09:01:52.752Z,80.69
2023-05-22T09:04:23.561Z,81.37
2023-05-22T09:06:50.739Z,82.13
2023-05-22T09:09:17.882Z,80.32
2023-05-22T09:11:44.360Z,79.73
2023-05-22T09:14:11.567Z,80.92
2023-05-22T09:16:46.655Z,80.52
2023-05-22T09:19:14.939Z,80.29
2023-05-22T09:21:43.286Z,79.30
2023-05-22T09:24:13.896Z,78.18
2023-05-22T09:26:41.084Z,77.90
2023-05-22T09:29:07.972Z,77.36
2023-05-22T09:31:42.605Z,76.58
2023-05-22T09:34:10.746Z,77.05
2023-05-22T09:36:37.162Z,76.08
2023-05-22T09:39:04.695Z,76.84
2023-05-22T09:41:35.228Z,76.52
2023-05-22T09:44:02.265Z,78.47
2023-05-22T09:46:29.596Z,77.30
2023-05-22T09:48:56.064Z,76.59
2023-05-22T09:51:26.551Z,77.08
2023-05-22T09:54:01.136Z,76.70
2023-05-22T09:56:38.655Z,76.05
2023-05-22T09:59:09.475Z,76.16
2023-05-22T10:01:38.496Z,75.51
2023-05-22T10:04:06.924Z,75.21
2023-05-22T10:06:34.706Z,75.06
2023-05-22T10:09:09.121Z,75.20
2023-05-22T10:11:47.792Z,74.86
2023-05-22T10:14:15.742Z,74.85
2023-05-22T10:16:44.888Z,74.82
2023-05-22T10:19:12.854Z,74.66
2023-05-22T10:21:41.450Z,74.24
2023-05-22T10:24:09.944Z,73.67
2023-05-22T10:26:37.338Z,75.00
2023-05-22T10:29:14.677Z,74.48
2023-05-22T10:31:53.727Z,74.25
2023-05-22T10:35:10.843Z,74.79
2023-05-22T10:37:56.574Z,75.51
2023-05-22T10:40:29.258Z,76.60
2023-05-22T10:43:03.995Z,75.53
2023-05-22T10:45:31.417Z,74.65
2023-05-22T10:48:09.456Z,74.45
2023-05-22T10:50:36.280Z,74.43
2023-05-22T10:53:28.199Z,74.85
2023-05-22T10:55:56.858Z,74.21
2023-05-22T10:58:29.244Z,74.17
2023-05-22T11:01:11.678Z,74.03
2023-05-22T11:04:03.188Z,73.58
2023-05-22T11:06:31.175Z,73.42
2023-05-22T11:08:57.674Z,73.95
2023-05-22T11:11:30.449Z,75.08
2023-05-22T11:14:03.651Z,74.45
2023-05-22T11:16:33.706Z,74.57
2023-05-22T11:19:22.084Z,73.54
2023-05-22T11:21:50.129Z,72.71
2023-05-22T11:24:18.058Z,72.54
2023-05-22T11:26:44.736Z,72.56
2023-05-22T11:29:11.129Z,72.29
2023-05-22T11:31:38.622Z,72.07
2023-05-22T11:34:05.300Z,70.69
2023-05-22T11:36:32.316Z,70.48
2023-05-22T11:39:02.052Z,69.95
2023-05-22T11:41:34.167Z,70.29
2023-05-22T11:44:01.489Z,69.03
2023-05-22T11:46:28.126Z,68.77
2023-05-22T11:48:54.788Z,67.23
2023-05-22T11:51:21.568Z,65.81
2023-05-22T11:53:48.317Z,64.25
2023-05-22T11:56:14.808Z,64.09
2023-05-22T11:58:41.195Z,65.35
2023-05-22T12:01:07.600Z,62.83
2023-05-22T12:03:34.277Z,62.34
2023-05-22T12:06:01.789Z,60.80
2023-05-22T12:08:28.539Z,61.13
2023-05-22T12:10:55.409Z,60.85
2023-05-22T12:13:29.764Z,60.14
2023-05-22T12:16:02.583Z,59.50
2023-05-22T12:18:39.095Z,60.32
2023-05-22T12:21:06.577Z,59.48
2023-05-22T12:23:32.972Z,58.16
2023-05-22T12:26:01.130Z,58.70
2023-05-22T12:28:28.333Z,59.41
2023-05-22T12:30:56.096Z,56.02
2023-05-22T12:33:29.438Z,58.02
2023-05-22T12:35:58.552Z,57.68
2023-05-22T12:38:26.992Z,58.11
2023-05-22T12:40:54.900Z,57.47
2023-05-22T12:43:23.478Z,57.30
2023-05-22T12:45:50.035Z,57.15
2023-05-22T12:48:16.789Z,58.50
2023-05-22T12:50:44.448Z,57.93
2023-05-22T12:53:10.860Z,59.17
2023-05-22T12:55:38.246Z,57.31
2023-05-22T12:58:05.234Z,57.35
2023-05-22T13:00:32.276Z,56.29
2023-05-22T13:03:07.605Z,56.33
2023-05-22T13:05:33.995Z,56.67
2023-05-22T13:08:00.468Z,56.95
2023-05-22T13:10:26.965Z,56.11
2023-05-22T13:12:53.444Z,57.28
2023-05-22T13:15:19.910Z,55.73
2023-05-22T13:17:46.329Z,55.41
2023-05-22T13:20:13.410Z,56.15
2023-05-22T13:22:40.583Z,55.73
2023-05-22T13:25:07.349Z,56.60
2023-05-22T13:27:34.157Z,54.63
2023-05-22T13:30:00.627Z,54.59
2023-05-22T13:32:27.202Z,54.67
2023-05-22T13:34:53.647Z,54.33
2023-05-22T13:37:20.133Z,56.03
2023-05-22T13:39:46.680Z,53.73
2023-05-22T13:42:13.228Z,53.45
2023-05-22T13:44:39.616Z,52.61
2023-05-22T13:47:06.093Z,52.86
2023-05-22T13:49:32.601Z,54.35
2023-05-22T13:51:59.230Z,54.17
2023-05-22T13:54:25.832Z,54.48
2023-05-22T13:56:52.258Z,54.49
2023-05-22T13:59:18.744Z,54.90
2023-05-22T14:01:45.245Z,54.79
2023-05-22T14:04:11.726Z,55.50
2023-05-22T14:06:38.233Z,55.90
2023-05-22T14:09:07.135Z,55.97
2023-05-22T14:11:34.112Z,54.76
2023-05-22T14:14:00.654Z,55.61
2023-05-22T14:16:27.283Z,53.75
2023-05-22T14:18:53.823Z,55.22
2023-05-22T14:21:20.790Z,55.01
2023-05-22T14:23:47.304Z,54.78
2023-05-22T14:26:14.465Z,55.17
2023-05-22T14:28:41.708Z,54.75
2023-05-22T14:31:08.141Z,54.69
2023-05-22T14:33:35.725Z,53.59
2023-05-22T14:36:02.486Z,53.36
2023-05-22T14:38:33.763Z,53.04
2023-05-22T14:41:03.350Z,52.85
2023-05-22T14:43:29.897Z,53.49
2023-05-22T14:45:57.924Z,54.28
2023-05-22T14:48:26.472Z,54.78
2023-05-22T14:50:56.065Z,53.13
2023-05-22T14:53:23.322Z,53.07
2023-05-22T14:55:49.767Z,53.09
2023-05-22T14:58:16.219Z,51.21
2023-05-22T15:00:42.747Z,50.74
2023-05-22T15:03:09.264Z,51.11
2023-05-22T15:05:35.923Z,52.23
2023-05-22T15:08:02.445Z,52.60
2023-05-22T15:10:28.959Z,52.02
2023-05-22T15:12:55.391Z,52.78
2023-05-22T15:15:21.935Z,51.66
2023-05-22T15:17:48.351Z,51.39
2023-05-22T15:20:14.916Z,51.92
2023-05-22T15:22:41.383Z,51.50
2023-05-22T15:25:11.473Z,52.53
2023-05-22T15:27:39.361Z,50.97
2023-05-22T15:30:06.724Z,50.71
2023-05-22T15:32:33.210Z,51.66
2023-05-22T15:34:59.862Z,52.38
2023-05-22T15:37:26.995Z,52.69
2023-05-22T15:39:53.407Z,51.45
2023-05-22T15:42:20.034Z,51.75
2023-05-22T15:44:46.500Z,51.54
2023-05-22T15:47:13.001Z,51.11
2023-05-22T15:49:39.501Z,51.42
2023-05-22T15:52:06.095Z,51.09
2023-05-22T15:54:32.557Z,50.85
2023-05-22T15:56:59.082Z,51.11
2023-05-22T15:59:25.599Z,51.04
2023-05-22T16:01:52.017Z,52.19
2023-05-22T16:04:18.454Z,52.74
2023-05-22T16:06:45.012Z,51.71
2023-05-22T16:09:11.434Z,51.62
2023-05-22T16:11:37.934Z,51.78
2023-05-22T16:14:04.779Z,52.21
2023-05-22T16:16:31.262Z,52.43
2023-05-22T16:18:57.686Z,52.23
2023-05-22T16:21:24.218Z,52.79
2023-05-22T16:23:50.750Z,52.70
2023-05-22T16:26:17.130Z,53.66
2023-05-22T16:28:43.667Z,52.81
2023-05-22T16:31:10.216Z,53.61
2023-05-22T16:33:37.488Z,53.73
2023-05-22T16:36:04.543Z,53.44
2023-05-22T16:38:31.165Z,54.09
2023-05-22T16:40:57.982Z,53.34
2023-05-22T16:43:24.625Z,53.97
2023-05-22T16:45:51.320Z,54.06
2023-05-22T16:48:18.161Z,54.35
2023-05-22T16:50:46.653Z,55.10
2023-05-22T16:53:13.705Z,55.40
2023-05-22T16:55:40.400Z,55.69
2023-05-22T16:58:07.135Z,55.65
2023-05-22T17:00:33.718Z,54.98
2023-05-22T17:03:00.609Z,55.46
2023-05-22T17:05:27.062Z,55.92
2023-05-22T17:07:53.488Z,55.60
2023-05-22T17:10:19.959Z,55.80
2023-05-22T17:12:46.460Z,55.47
2023-05-22T17:15:12.881Z,55.79
2023-05-22T17:17:39.422Z,55.50
2023-05-22T17:20:07.237Z,55.54
2023-05-22T17:22:36.051Z,56.39
2023-05-22T17:25:02.717Z,55.98
2023-05-22T17:27:35.972Z,56.56
2023-05-22T17:30:04.775Z,57.02
2023-05-22T17:32:31.585Z,57.75
2023-05-22T17:34:58.528Z,57.68
2023-05-22T17:37:24.932Z,58.60
2023-05-22T17:39:51.682Z,56.09
2023-05-22T17:42:18.134Z,55.05
2023-05-22T17:44:44.604Z,54.84
2023-05-22T17:47:11.290Z,54.36
2023-05-22T17:49:37.808Z,54.52
2023-05-22T17:52:04.384Z,54.64
2023-05-22T17:54:35.292Z,55.30
2023-05-22T17:57:04.034Z,54.99
2023-05-22T17:59:32.036Z,55.45
2023-05-22T18:01:58.831Z,55.11
2023-05-22T18:04:25.380Z,55.05
2023-05-22T18:06:52.256Z,55.06
2023-05-22T18:09:18.811Z,54.99
2023-05-22T18:11:45.242Z,55.17
2023-05-22T18:14:11.745Z,55.39
2023-05-22T18:16:38.255Z,55.45
2023-05-22T18:19:04.753Z,54.93
2023-05-22T18:21:32.128Z,54.97
2023-05-22T18:23:58.729Z,54.95
2023-05-22T18:26:26.628Z,55.28
2023-05-22T18:28:53.169Z,55.63
2023-05-22T18:31:19.778Z,56.02
2023-05-22T18:33:46.694Z,56.65
2023-05-22T18:36:13.158Z,56.98
2023-05-22T18:38:39.747Z,57.83
2023-05-22T18:41:06.636Z,58.18
2023-05-22T18:43:33.648Z,57.87
2023-05-22T18:46:00.312Z,58.03
2023-05-22T18:48:28.129Z,58.49
2023-05-22T18:50:57.639Z,58.45
2023-05-22T18:53:25.301Z,58.68
2023-05-22T18:55:52.545Z,58.84
2023-05-22T18:58:19.278Z,58.05
2023-05-22T19:00:46.010Z,57.78
2023-05-22T19:03:12.568Z,57.66
2023-05-22T19:05:39.041Z,57.17
2023-05-22T19:08:06.122Z,57.12
2023-05-22T19:10:33.030Z,57.21
2023-05-22T19:12:59.591Z,57.15
2023-05-22T19:15:26.123Z,56.35
2023-05-22T19:17:52.670Z,55.82
2023-05-22T19:20:19.179Z,56.37
2023-05-22T19:22:45.692Z,57.77
2023-05-22T19:25:12.452Z,57.16
2023-05-22T19:27:39.406Z,57.78
2023-05-22T19:30:06.789Z,57.80
2023-05-22T19:32:33.269Z,57.88
2023-05-22T19:34:59.695Z,58.33
2023-05-22T19:37:26.124Z,58.28
2023-05-22T19:39:54.108Z,58.53
2023-05-22T19:42:20.523Z,58.74
2023-05-22T19:44:47.036Z,58.71
2023-05-22T19:47:13.419Z,59.37
2023-05-22T19:49:39.840Z,59.69
2023-05-22T19:52:06.662Z,59.69
2023-05-22T19:54:33.109Z,59.72
2023-05-22T19:56:59.611Z,60.09
2023-05-22T19:59:26.902Z,60.17
2023-05-22T20:01:53.954Z,60.50
2023-05-22T20:04:21.382Z,60.04
2023-05-22T20:06:48.414Z,60.39
2023-05-22T20:09:15.326Z,60.59
2023-05-22T20:11:41.775Z,61.01
2023-05-22T20:14:08.358Z,60.96
2023-05-22T20:16:34.961Z,60.75
2023-05-22T20:19:02.518Z,60.98
2023-05-22T20:21:29.003Z,60.78
2023-05-22T20:23:55.584Z,60.98
2023-05-22T20:26:22.108Z,61.29
2023-05-22T20:28:48.600Z,60.33
2023-05-22T20:31:15.156Z,61.24
2023-05-22T20:33:41.689Z,60.87
2023-05-22T20:36:08.575Z,61.08
2023-05-22T20:38:35.155Z,60.76
2023-05-22T20:41:02.491Z,61.21
2023-05-22T20:43:30.642Z,61.24
2023-05-22T20:45:57.361Z,61.40
2023-05-22T20:48:23.995Z,61.71
2023-05-22T20:50:50.708Z,61.68
2023-05-22T20:53:17.534Z,61.71
2023-05-22T20:55:44.117Z,62.02
2023-05-22T20:58:10.619Z,62.31
2023-05-22T21:00:37.332Z,61.51
2023-05-22T21:03:03.755Z,62.34
2023-05-22T21:05:30.443Z,61.80
2023-05-22T21:07:57.907Z,61.94
2023-05-22T21:10:24.477Z,62.35
2023-05-22T21:12:50.862Z,61.01
2023-05-22T21:15:17.496Z,61.70
2023-05-22T21:17:44.068Z,61.64
2023-05-22T21:20:10.918Z,61.57
2023-05-22T21:22:37.351Z,61.00
2023-05-22T21:25:04.121Z,61.32
2023-05-22T21:27:30.913Z,61.12
2023-05-22T21:30:13.368Z,61.01
2023-05-22T21:32:39.779Z,61.85
2023-05-22T21:35:06.766Z,61.21
2023-05-22T21:37:33.129Z,61.77
2023-05-22T21:39:59.596Z,62.05
2023-05-22T21:42:26.360Z,62.55
2023-05-22T21:44:52.774Z,62.46
2023-05-22T21:47:19.212Z,62.36
2023-05-22T21:49:45.747Z,62.06
2023-05-22T21:52:12.129Z,62.62
2023-05-22T21:54:39.430Z,62.45
2023-05-22T21:57:06.243Z,63.41
2023-05-22T21:59:32.651Z,63.32
2023-05-22T22:01:59.054Z,63.94
2023-05-22T22:04:25.509Z,63.04
2023-05-22T22:06:51.893Z,63.64
2023-05-22T22:09:18.257Z,64.39
2023-05-22T22:11:44.650Z,64.14
2023-05-22T22:14:11.144Z,64.21
2023-05-22T22:16:37.738Z,64.28
2023-05-22T22:19:04.746Z,64.25
2023-05-22T22:21:33.370Z,63.87
2023-05-22T22:23:59.770Z,63.52
2023-05-22T22:26:30.532Z,64.22
2023-05-22T22:28:57.525Z,64.62
2023-05-22T22:31:24.411Z,64.92
2023-05-22T22:33:50.953Z,65.01
2023-05-22T22:36:17.506Z,66.04
2023-05-22T22:38:43.952Z,66.26
2023-05-22T22:41:10.572Z,66.81
2023-05-22T22:43:36.994Z,66.88
2023-05-22T22:46:03.404Z,66.51
2023-05-22T22:48:29.815Z,66.65
2023-05-22T22:50:56.360Z,66.30
2023-05-22T22:53:22.763Z,66.65
2023-05-22T22:55:55.743Z,66.81
2023-05-22T22:58:22.470Z,66.24
2023-05-22T23:00:48.938Z,67.56
2023-05-22T23:03:15.542Z,66.95
2023-05-22T23:05:42.284Z,67.46
2023-05-22T23:08:08.914Z,67.60
2023-05-22T23:10:35.453Z,67.80
2023-05-22T23:13:01.807Z,67.98
2023-05-22T23:15:28.330Z,67.99
2023-05-22T23:17:54.726Z,67.78
2023-05-22T23:20:21.251Z,67.75
2023-05-22T23:22:47.691Z,67.91
2023-05-22T23:25:14.111Z,68.03
2023-05-22T23:27:40.483Z,68.73
2023-05-22T23:30:08.030Z,68.09
2023-05-22T23:32:34.428Z,67.80
2023-05-22T23:35:00.996Z,68.02
2023-05-22T23:37:27.457Z,68.40
2023-05-22T23:39:54.316Z,68.48
2023-05-22T23:42:20.883Z,69.38
2023-05-22T23:44:47.494Z,69.61
2023-05-22T23:47:13.938Z,69.60
2023-05-22T23:49:40.336Z,70.11
2023-05-22T23:52:07.959Z,70.59
2023-05-22T23:54:34.331Z,70.70
2023-05-22T23:57:00.766Z,71.13
2023-05-22T23:59:27.266Z,71.48
